Time;durP1;ratioP1;P1;durP2;ratioP2;P2;SDS_P1;SDS_P2;PMS_P1;PMS_P2;Temp;Humidity;BMP_temperature;BMP_pressure;BME280_temperature;BME280_humidity;BME280_pressure;Samples;Min_cycle;Max_cycle;Signal;HPM_P1;HPM_P2
2023/10/31 00:00:40;;;;;;;0.00;0.00;;;11.20;99.90;;;;;;4991958;28;20089;-66
2023/10/31 00:03:05;;;;;;;0.00;0.00;;;11.20;99.90;;;;;;4985023;28;20059;-66
2023/10/31 00:05:31;;;;;;;0.10;0.10;;;11.20;99.90;;;;;;4988840;28;20046;-66
2023/10/31 00:07:57;;;;;;;0.10;0.10;;;11.20;99.90;;;;;;4991399;28;20050;-66
2023/10/31 00:10:22;;;;;;;0.52;0.52;;;11.20;99.90;;;;;;4991391;28;20518;-66
2023/10/31 00:12:48;;;;;;;0.22;0.22;;;11.20;99.90;;;;;;4985492;28;20042;-66
2023/10/31 00:15:14;;;;;;;0.05;0.05;;;11.20;99.90;;;;;;4992697;28;20039;-66
2023/10/31 00:17:39;;;;;;;0.10;0.10;;;11.20;99.90;;;;;;4980542;28;20509;-66
2023/10/31 00:20:06;;;;;;;0.10;0.10;;;11.20;99.90;;;;;;4990593;28;20050;-66
2023/10/31 00:22:31;;;;;;;0.10;0.10;;;11.20;99.90;;;;;;4985346;28;20092;-66
2023/10/31 00:24:57;;;;;;;0.10;0.10;;;11.20;99.90;;;;;;4987281;28;20042;-65
2023/10/31 00:27:22;;;;;;;3.88;1.00;;;11.20;99.90;;;;;;4982840;28;20056;-66
2023/10/31 00:29:48;;;;;;;0.10;0.10;;;11.20;99.90;;;;;;4988293;28;20078;-66
2023/10/31 00:32:14;;;;;;;0.03;0.03;;;11.20;99.90;;;;;;4992142;28;20137;-66
2023/10/31 00:34:39;;;;;;;0.00;0.00;;;11.20;99.90;;;;;;4986483;28;20498;-66
2023/10/31 00:37:05;;;;;;;0.00;0.00;;;11.20;99.90;;;;;;4986359;28;20049;-66
2023/10/31 00:39:30;;;;;;;0.57;0.57;;;11.20;99.90;;;;;;4988967;28;20042;-66
2023/10/31 00:41:56;;;;;;;0.20;0.20;;;11.20;99.90;;;;;;4985018;28;20462;-66
2023/10/31 00:44:21;;;;;;;1.60;0.67;;;11.20;99.90;;;;;;4987941;28;20042;-66
2023/10/31 00:46:47;;;;;;;0.32;0.32;;;11.20;99.90;;;;;;4990942;28;20255;-66
2023/10/31 00:49:12;;;;;;;0.10;0.10;;;11.20;99.90;;;;;;4990450;28;20478;-65
2023/10/31 00:51:38;;;;;;;0.75;0.63;;;11.20;99.90;;;;;;4975582;28;20054;-66
2023/10/31 00:54:04;;;;;;;0.20;0.20;;;11.20;99.90;;;;;;4991067;28;20097;-66
2023/10/31 00:56:29;;;;;;;0.10;0.10;;;11.30;99.90;;;;;;4990944;28;20125;-66
2023/10/31 00:58:55;;;;;;;0.00;0.00;;;11.20;99.90;;;;;;4977214;28;20075;-66
2023/10/31 01:01:20;;;;;;;0.10;0.10;;;11.20;99.90;;;;;;4981798;28;20050;-66
2023/10/31 01:03:46;;;;;;;0.10;0.10;;;11.20;99.90;;;;;;4991293;28;20085;-66
2023/10/31 01:06:11;;;;;;;0.10;0.10;;;11.20;99.90;;;;;;4980148;28;20077;-66
2023/10/31 01:08:37;;;;;;;0.10;0.10;;;11.20;99.90;;;;;;4983431;28;20054;-66
2023/10/31 01:11:03;;;;;;;0.00;0.00;;;11.20;99.90;;;;;;4990134;28;20054;-66
2023/10/31 01:13:28;;;;;;;0.10;0.10;;;11.20;99.90;;;;;;4980427;28;20044;-66
2023/10/31 01:15:54;;;;;;;0.10;0.10;;;11.10;99.90;;;;;;4988889;28;20126;-66
2023/10/31 01:18:19;;;;;;;0.20;0.20;;;11.20;99.90;;;;;;4989295;28;20136;-67
2023/10/31 01:20:45;;;;;;;0.00;0.00;;;11.10;99.90;;;;;;4985200;28;20062;-66
2023/10/31 01:23:11;;;;;;;0.10;0.10;;;11.10;99.90;;;;;;4986051;28;20034;-66
2023/10/31 01:25:36;;;;;;;0.00;0.00;;;11.10;99.90;;;;;;4988843;28;20410;-66
2023/10/31 01:28:02;;;;;;;0.00;0.00;;;11.10;99.90;;;;;;4990635;28;20042;-66
2023/10/31 01:30:27;;;;;;;0.05;0.05;;;11.10;99.90;;;;;;4981218;28;20049;-67
2023/10/31 01:32:53;;;;;;;0.10;0.10;;;11.10;99.90;;;;;;4982120;28;20038;-67
2023/10/31 01:35:18;;;;;;;0.13;0.13;;;11.00;99.90;;;;;;4987226;28;20046;-66
2023/10/31 01:37:44;;;;;;;0.10;0.10;;;11.10;99.90;;;;;;4987809;28;20554;-66
2023/10/31 01:40:13;;;;;;;0.63;0.63;;;11.10;99.90;;;;;;4980703;28;20133;-66
2023/10/31 01:42:38;;;;;;;0.10;0.10;;;11.10;99.90;;;;;;4985163;28;20046;-66
2023/10/31 01:45:04;;;;;;;0.10;0.10;;;11.10;99.90;;;;;;4983703;28;20058;-66
2023/10/31 01:47:30;;;;;;;0.10;0.10;;;11.10;99.90;;;;;;4980289;28;20486;-66
2023/10/31 01:49:55;;;;;;;0.10;0.10;;;11.10;99.90;;;;;;4991084;28;20072;-66
2023/10/31 01:52:21;;;;;;;0.00;0.00;;;11.10;99.90;;;;;;4987460;28;20089;-66
2023/10/31 01:54:47;;;;;;;0.10;0.10;;;11.10;99.90;;;;;;4984388;28;20081;-66
2023/10/31 01:57:14;;;;;;;0.13;0.13;;;11.10;99.90;;;;;;4985337;28;20043;-66
2023/10/31 01:59:40;;;;;;;0.80;0.40;;;11.10;99.90;;;;;;4988324;28;20085;-66
2023/10/31 02:02:06;;;;;;;0.10;0.10;;;11.10;99.90;;;;;;4981599;28;20050;-66
2023/10/31 02:04:31;;;;;;;0.57;0.57;;;11.10;99.90;;;;;;4983553;28;20105;-66
2023/10/31 02:06:57;;;;;;;0.10;0.10;;;11.10;99.90;;;;;;4983999;28;20038;-66
2023/10/31 02:09:27;;;;;;;8.38;0.75;;;11.20;99.90;;;;;;4988195;28;20057;-66
2023/10/31 02:11:52;;;;;;;0.08;0.08;;;11.10;99.90;;;;;;4980603;28;20561;-66
2023/10/31 02:14:19;;;;;;;0.30;0.22;;;11.10;99.90;;;;;;4982296;28;20038;-66
2023/10/31 02:16:44;;;;;;;0.00;0.00;;;11.10;99.90;;;;;;4979624;28;20051;-66
2023/10/31 02:19:12;;;;;;;0.10;0.10;;;11.20;99.90;;;;;;4988561;28;20042;-66
2023/10/31 02:21:39;;;;;;;0.00;0.00;;;11.20;99.90;;;;;;4987519;28;20050;-66
2023/10/31 02:24:05;;;;;;;0.10;0.10;;;11.20;99.90;;;;;;4984348;28;20131;-66
2023/10/31 02:26:33;;;;;;;0.10;0.10;;;11.10;99.90;;;;;;4985902;28;20129;-66
2023/10/31 02:29:00;;;;;;;0.30;0.30;;;11.10;99.90;;;;;;4979872;28;20462;-66
2023/10/31 02:31:26;;;;;;;0.10;0.10;;;11.10;99.90;;;;;;4987893;28;20453;-66
2023/10/31 02:33:52;;;;;;;0.40;0.40;;;11.20;99.90;;;;;;4987470;28;20107;-66
2023/10/31 02:36:18;;;;;;;0.10;0.10;;;11.10;99.90;;;;;;4978882;28;20043;-66
2023/10/31 02:38:44;;;;;;;0.10;0.10;;;11.20;99.90;;;;;;4984505;28;20101;-66
2023/10/31 02:41:10;;;;;;;0.10;0.10;;;11.20;99.90;;;;;;4988732;28;20438;-66
2023/10/31 02:43:36;;;;;;;0.08;0.08;;;11.20;99.90;;;;;;4986255;28;20422;-66
2023/10/31 02:46:02;;;;;;;2.25;0.63;;;11.20;99.90;;;;;;4975256;28;20051;-66
2023/10/31 02:48:29;;;;;;;0.05;0.05;;;11.10;99.90;;;;;;4985940;28;20173;-66
2023/10/31 02:50:54;;;;;;;0.10;0.10;;;11.10;99.90;;;;;;4987835;28;20613;-66
2023/10/31 02:53:20;;;;;;;0.10;0.10;;;11.10;99.90;;;;;;4980682;28;20142;-66
2023/10/31 02:55:46;;;;;;;0.00;0.00;;;11.20;99.90;;;;;;4989427;28;20101;-66
2023/10/31 02:58:12;;;;;;;0.10;0.10;;;11.10;99.90;;;;;;4982716;28;20078;-66
2023/10/31 03:00:37;;;;;;;0.10;0.10;;;11.20;99.90;;;;;;4979738;28;20517;-66
2023/10/31 03:03:03;;;;;;;0.38;0.38;;;11.20;99.90;;;;;;4975547;28;20043;-66
2023/10/31 03:05:29;;;;;;;0.00;0.00;;;11.20;99.90;;;;;;4987220;28;20050;-66
2023/10/31 03:07:55;;;;;;;0.00;0.00;;;11.20;99.90;;;;;;4984444;28;20054;-66
2023/10/31 03:10:21;;;;;;;0.10;0.10;;;11.20;99.90;;;;;;4983258;28;20124;-66
2023/10/31 03:12:47;;;;;;;0.00;0.00;;;11.20;99.90;;;;;;4988015;28;20036;-66
2023/10/31 03:15:13;;;;;;;4.45;0.80;;;11.20;99.90;;;;;;4988303;28;20050;-66
2023/10/31 03:17:39;;;;;;;0.10;0.10;;;11.20;99.90;;;;;;4980732;28;20407;-66
2023/10/31 03:20:05;;;;;;;0.10;0.10;;;11.20;99.90;;;;;;4987215;28;20042;-66
2023/10/31 03:22:31;;;;;;;0.10;0.10;;;11.20;99.90;;;;;;4983181;28;20145;-66
2023/10/31 03:24:56;;;;;;;0.00;0.00;;;11.30;99.90;;;;;;4986769;28;20557;-66
2023/10/31 03:27:22;;;;;;;0.00;0.00;;;11.30;99.90;;;;;;4987300;28;20054;-66
2023/10/31 03:29:48;;;;;;;0.10;0.10;;;11.30;99.90;;;;;;4982124;28;20482;-67
2023/10/31 03:32:15;;;;;;;0.10;0.10;;;11.30;99.90;;;;;;4990784;28;20100;-67
2023/10/31 03:34:40;;;;;;;0.00;0.00;;;11.30;99.90;;;;;;4992209;28;20461;-66
2023/10/31 03:37:06;;;;;;;0.10;0.10;;;11.30;99.90;;;;;;4992223;28;20078;-66
2023/10/31 03:39:32;;;;;;;0.10;0.10;;;11.30;99.90;;;;;;4980538;28;20054;-66
2023/10/31 03:41:57;;;;;;;0.00;0.00;;;11.30;99.90;;;;;;4989170;28;20398;-66
2023/10/31 03:44:23;;;;;;;0.10;0.10;;;11.30;99.90;;;;;;4992540;28;20042;-66
2023/10/31 03:46:48;;;;;;;0.25;0.25;;;11.30;99.90;;;;;;4992481;28;20482;-66
2023/10/31 03:49:14;;;;;;;0.10;0.10;;;11.30;99.90;;;;;;4978819;28;20064;-66
2023/10/31 03:51:40;;;;;;;0.25;0.25;;;11.30;99.90;;;;;;4988141;28;20046;-66
2023/10/31 03:54:05;;;;;;;0.10;0.10;;;11.30;99.90;;;;;;5007392;28;20049;-66
2023/10/31 03:56:38;;;;;;;0.10;0.10;;;11.30;99.90;;;;;;4979373;28;20069;-66
2023/10/31 03:59:04;;;;;;;0.10;0.10;;;11.30;99.90;;;;;;4986004;28;20050;-66
2023/10/31 04:01:29;;;;;;;0.13;0.13;;;11.30;99.90;;;;;;4990250;28;20088;-66
2023/10/31 04:03:55;;;;;;;0.10;0.10;;;11.30;99.90;;;;;;4999608;28;20039;-66
2023/10/31 04:06:22;;;;;;;0.00;0.00;;;11.30;99.90;;;;;;4989552;28;20044;-67
2023/10/31 04:08:47;;;;;;;0.00;0.00;;;11.30;99.90;;;;;;4987856;28;20038;-66
2023/10/31 04:11:13;;;;;;;0.10;0.10;;;11.30;99.90;;;;;;4998681;28;20125;-66
2023/10/31 04:13:38;;;;;;;0.10;0.10;;;11.20;99.90;;;;;;4981671;28;20042;-66
2023/10/31 04:16:04;;;;;;;0.00;0.00;;;11.20;99.90;;;;;;4984258;28;20086;-66
2023/10/31 04:18:30;;;;;;;0.10;0.10;;;11.20;99.90;;;;;;4984063;28;20055;-66
2023/10/31 04:20:55;;;;;;;0.10;0.10;;;11.20;99.90;;;;;;4984256;28;20081;-66
2023/10/31 04:23:21;;;;;;;0.20;0.20;;;11.20;99.90;;;;;;4982513;28;20093;-66
2023/10/31 04:25:46;;;;;;;0.10;0.10;;;11.20;99.90;;;;;;4980950;28;20043;-66
2023/10/31 04:28:14;;;;;;;0.00;0.00;;;11.20;99.90;;;;;;4990636;28;20046;-66
2023/10/31 04:30:40;;;;;;;0.10;0.10;;;11.10;99.90;;;;;;4991097;28;20058;-66
2023/10/31 04:33:05;;;;;;;0.10;0.10;;;11.10;99.90;;;;;;4986082;28;20049;-66
2023/10/31 04:35:31;;;;;;;0.03;0.03;;;11.10;99.90;;;;;;4989260;28;20054;-66
2023/10/31 04:37:56;;;;;;;0.10;0.10;;;11.10;99.90;;;;;;4987146;28;20121;-66
2023/10/31 04:40:22;;;;;;;0.10;0.10;;;11.10;99.90;;;;;;4982671;28;20050;-66
2023/10/31 04:42:48;;;;;;;0.10;0.10;;;11.10;99.90;;;;;;4990785;28;20532;-66
2023/10/31 04:45:13;;;;;;;0.00;0.00;;;11.10;99.90;;;;;;4991991;28;20069;-66
2023/10/31 04:47:40;;;;;;;0.10;0.10;;;11.10;99.90;;;;;;4984597;28;20525;-66
2023/10/31 04:50:06;;;;;;;0.10;0.10;;;11.10;99.90;;;;;;4988369;28;20069;-66
2023/10/31 04:52:31;;;;;;;0.10;0.10;;;11.10;99.90;;;;;;4982845;28;20046;-66
2023/10/31 04:54:57;;;;;;;0.00;0.00;;;11.10;99.90;;;;;;4985705;28;20046;-66
2023/10/31 04:57:22;;;;;;;0.10;0.10;;;11.00;99.90;;;;;;4982607;28;20050;-66
2023/10/31 04:59:48;;;;;;;0.45;0.45;;;11.00;99.90;;;;;;4985824;28;20074;-66
2023/10/31 05:02:14;;;;;;;0.00;0.00;;;11.10;99.90;;;;;;4991847;28;20053;-66
2023/10/31 05:04:40;;;;;;;0.30;0.30;;;11.00;99.90;;;;;;4980289;28;20046;-66
2023/10/31 05:07:06;;;;;;;0.05;0.05;;;11.00;99.90;;;;;;4987152;28;20042;-66
2023/10/31 05:09:31;;;;;;;0.00;0.00;;;11.00;99.90;;;;;;4989560;28;20482;-66
2023/10/31 05:11:57;;;;;;;0.10;0.10;;;11.00;99.90;;;;;;4986138;28;20042;-66
2023/10/31 05:14:22;;;;;;;0.10;0.10;;;11.00;99.90;;;;;;4982939;28;20402;-66
2023/10/31 05:16:48;;;;;;;0.10;0.10;;;11.00;99.90;;;;;;4989874;28;20042;-66
2023/10/31 05:19:13;;;;;;;0.00;0.00;;;11.10;99.90;;;;;;4988864;28;20466;-66
2023/10/31 05:21:39;;;;;;;0.00;0.00;;;11.00;99.90;;;;;;4976556;28;20077;-67
2023/10/31 05:24:05;;;;;;;0.00;0.00;;;11.10;99.90;;;;;;4989577;28;20042;-67
2023/10/31 05:26:31;;;;;;;0.10;0.10;;;11.10;99.90;;;;;;4978440;28;20126;-67
2023/10/31 05:28:57;;;;;;;0.00;0.00;;;11.10;99.90;;;;;;4986622;28;20140;-67
2023/10/31 05:31:24;;;;;;;0.00;0.00;;;11.10;99.90;;;;;;4990451;28;20042;-67
2023/10/31 05:33:51;;;;;;;0.00;0.00;;;11.10;99.90;;;;;;4985317;28;20054;-66
2023/10/31 05:36:21;;;;;;;0.10;0.10;;;11.10;99.90;;;;;;4990002;28;20057;-66
2023/10/31 05:38:47;;;;;;;0.00;0.00;;;11.10;99.90;;;;;;4990938;28;20046;-66
2023/10/31 05:41:14;;;;;;;0.05;0.05;;;11.20;99.90;;;;;;4982105;28;20042;-66
2023/10/31 05:43:39;;;;;;;0.55;0.55;;;11.10;99.90;;;;;;4987870;28;20661;-66
2023/10/31 05:46:05;;;;;;;0.10;0.10;;;11.20;99.90;;;;;;4982510;28;20050;-66
2023/10/31 05:48:32;;;;;;;0.00;0.00;;;11.20;99.90;;;;;;4982542;28;20050;-66
2023/10/31 05:50:57;;;;;;;0.00;0.00;;;11.20;99.90;;;;;;4979632;28;20034;-66
2023/10/31 05:53:23;;;;;;;0.57;0.45;;;11.20;99.90;;;;;;4986739;28;20053;-66
2023/10/31 05:55:49;;;;;;;0.00;0.00;;;11.20;99.90;;;;;;4984421;28;20046;-66
2023/10/31 05:58:14;;;;;;;0.15;0.13;;;11.20;99.90;;;;;;4982693;28;20050;-66
2023/10/31 06:00:40;;;;;;;0.10;0.10;;;11.20;99.90;;;;;;4988190;28;20081;-66
2023/10/31 06:03:06;;;;;;;0.00;0.00;;;11.20;99.90;;;;;;4984547;28;20455;-66
2023/10/31 06:05:31;;;;;;;0.10;0.10;;;11.20;99.90;;;;;;4980938;28;20042;-66
2023/10/31 06:07:57;;;;;;;0.10;0.10;;;11.20;99.90;;;;;;4989825;28;20104;-66
2023/10/31 06:10:22;;;;;;;0.00;0.00;;;11.20;99.90;;;;;;4981680;28;20051;-66
2023/10/31 06:12:48;;;;;;;0.10;0.10;;;11.20;99.90;;;;;;4978685;28;20152;-66
2023/10/31 06:15:14;;;;;;;0.10;0.10;;;11.20;99.90;;;;;;4988804;28;20070;-66
2023/10/31 06:17:39;;;;;;;0.10;0.10;;;11.10;99.90;;;;;;4989478;28;20054;-66
2023/10/31 06:20:07;;;;;;;0.00;0.00;;;11.20;99.90;;;;;;4981561;28;20050;-66
2023/10/31 06:22:33;;;;;;;0.03;0.03;;;11.20;99.90;;;;;;4983211;28;20441;-66
2023/10/31 06:24:59;;;;;;;0.00;0.00;;;11.20;99.90;;;;;;4990135;28;20041;-66
2023/10/31 06:27:24;;;;;;;0.00;0.00;;;11.10;99.90;;;;;;4987751;28;20062;-66
2023/10/31 06:29:50;;;;;;;0.10;0.10;;;11.10;99.90;;;;;;4982531;28;20137;-66
2023/10/31 06:32:15;;;;;;;0.08;0.08;;;11.10;99.90;;;;;;4984043;28;20426;-66
2023/10/31 06:34:41;;;;;;;0.20;0.20;;;11.10;99.90;;;;;;4972931;28;20549;-66
2023/10/31 06:37:07;;;;;;;0.10;0.10;;;11.10;99.90;;;;;;4980576;28;20034;-66
2023/10/31 06:39:32;;;;;;;0.00;0.00;;;11.00;99.90;;;;;;4985975;28;20042;-66
2023/10/31 06:41:58;;;;;;;0.80;0.80;;;11.00;99.90;;;;;;4981913;28;20106;-66
2023/10/31 06:44:23;;;;;;;0.00;0.00;;;11.00;99.90;;;;;;4980369;28;20085;-66
2023/10/31 06:46:49;;;;;;;0.10;0.10;;;11.00;99.90;;;;;;4976523;28;20050;-66
2023/10/31 06:49:15;;;;;;;0.00;0.00;;;11.00;99.90;;;;;;4981322;28;20034;-67
2023/10/31 06:51:41;;;;;;;0.03;0.03;;;10.90;99.90;;;;;;4979779;28;20066;-67
2023/10/31 06:54:07;;;;;;;0.10;0.10;;;10.90;99.90;;;;;;4985514;28;20114;-67
2023/10/31 06:56:32;;;;;;;0.00;0.00;;;11.00;99.90;;;;;;4987531;28;20050;-66
2023/10/31 06:58:58;;;;;;;0.00;0.00;;;11.00;99.90;;;;;;4981798;28;20414;-66
2023/10/31 07:01:24;;;;;;;0.10;0.10;;;11.00;99.90;;;;;;4977916;28;20055;-66
2023/10/31 07:03:49;;;;;;;0.10;0.10;;;11.00;99.90;;;;;;4981753;28;20043;-66
2023/10/31 07:06:15;;;;;;;0.10;0.10;;;11.10;99.90;;;;;;4989207;28;20437;-67
2023/10/31 07:08:41;;;;;;;0.10;0.10;;;11.10;99.90;;;;;;4990903;28;20541;-66
2023/10/31 07:11:06;;;;;;;0.10;0.10;;;11.10;99.90;;;;;;4983066;28;20406;-66
2023/10/31 07:13:32;;;;;;;0.00;0.00;;;11.10;99.90;;;;;;4985835;28;20129;-67
2023/10/31 07:15:57;;;;;;;0.10;0.10;;;11.20;99.90;;;;;;4988478;28;20047;-66
2023/10/31 07:18:23;;;;;;;0.30;0.30;;;11.20;99.90;;;;;;4990739;28;20038;-66
2023/10/31 07:20:48;;;;;;;0.00;0.00;;;11.30;99.90;;;;;;4984478;28;20058;-66
2023/10/31 07:23:14;;;;;;;0.10;0.10;;;11.20;99.90;;;;;;4992263;28;20042;-66
2023/10/31 07:25:40;;;;;;;0.05;0.05;;;11.30;99.90;;;;;;4983080;28;20050;-66
2023/10/31 07:28:06;;;;;;;0.10;0.10;;;11.30;99.90;;;;;;4989197;28;20379;-66
2023/10/31 07:30:32;;;;;;;0.00;0.00;;;11.30;99.90;;;;;;4992440;28;20039;-66
2023/10/31 07:32:57;;;;;;;0.10;0.10;;;11.30;99.90;;;;;;4984148;28;20047;-66
2023/10/31 07:35:23;;;;;;;0.10;0.10;;;11.40;99.90;;;;;;4987824;28;20064;-66
2023/10/31 07:37:48;;;;;;;0.00;0.00;;;11.40;99.90;;;;;;4991852;28;20046;-66
2023/10/31 07:40:14;;;;;;;0.10;0.10;;;11.40;99.90;;;;;;4983416;28;20250;-66
2023/10/31 07:42:40;;;;;;;0.00;0.00;;;11.40;99.90;;;;;;4984669;28;20047;-66
2023/10/31 07:45:06;;;;;;;0.00;0.00;;;11.40;99.90;;;;;;4982246;28;20047;-66
2023/10/31 07:47:31;;;;;;;0.10;0.10;;;11.40;99.90;;;;;;4983951;28;20070;-66
2023/10/31 07:49:57;;;;;;;0.00;0.00;;;11.40;99.90;;;;;;4993288;28;20038;-66
2023/10/31 07:52:22;;;;;;;0.00;0.00;;;11.40;99.90;;;;;;4987245;28;20139;-67
2023/10/31 07:54:49;;;;;;;0.10;0.10;;;11.40;99.90;;;;;;4984161;28;20463;-66
2023/10/31 07:57:14;;;;;;;0.03;0.03;;;11.40;99.90;;;;;;4992794;28;20497;-66
2023/10/31 07:59:40;;;;;;;0.10;0.10;;;11.40;99.90;;;;;;4983000;28;20051;-66
2023/10/31 08:02:06;;;;;;;0.20;0.20;;;11.50;99.90;;;;;;4991764;28;20085;-66
2023/10/31 08:04:32;;;;;;;0.10;0.10;;;11.50;99.90;;;;;;4981796;28;20047;-66
2023/10/31 08:06:58;;;;;;;0.10;0.10;;;11.50;99.90;;;;;;4989841;28;20050;-67
2023/10/31 08:09:23;;;;;;;0.10;0.10;;;11.50;99.90;;;;;;4982944;28;20725;-66
2023/10/31 08:11:49;;;;;;;0.10;0.10;;;11.50;99.90;;;;;;4985941;28;20046;-67
2023/10/31 08:14:15;;;;;;;0.05;0.05;;;11.50;99.90;;;;;;4992345;28;20034;-67
2023/10/31 08:16:41;;;;;;;0.10;0.10;;;11.50;99.90;;;;;;4989892;28;20038;-67
2023/10/31 08:19:07;;;;;;;3.65;1.17;;;11.50;99.90;;;;;;4982322;28;20366;-67
2023/10/31 08:21:35;;;;;;;0.10;0.10;;;11.40;99.90;;;;;;4980364;28;20047;-67
2023/10/31 08:24:03;;;;;;;0.10;0.10;;;11.50;99.90;;;;;;4987330;28;20517;-67
2023/10/31 08:26:29;;;;;;;0.00;0.00;;;11.50;99.90;;;;;;4983400;28;20038;-67
2023/10/31 08:28:55;;;;;;;0.10;0.10;;;11.50;99.90;;;;;;4989716;28;20050;-67
2023/10/31 08:31:20;;;;;;;0.10;0.10;;;11.60;99.90;;;;;;4991751;28;20064;-66
2023/10/31 08:33:46;;;;;;;0.00;0.00;;;11.60;99.90;;;;;;4980937;28;20549;-66
2023/10/31 08:36:12;;;;;;;0.00;0.00;;;11.60;99.90;;;;;;4987134;28;20743;-66
2023/10/31 08:38:37;;;;;;;0.00;0.00;;;11.60;99.90;;;;;;4987976;28;20035;-66
2023/10/31 08:41:03;;;;;;;0.20;0.20;;;11.60;99.90;;;;;;4984022;28;20078;-66
2023/10/31 08:43:29;;;;;;;0.32;0.32;;;11.70;99.90;;;;;;4989725;28;20050;-66
2023/10/31 08:45:54;;;;;;;0.00;0.00;;;11.60;99.90;;;;;;4991363;28;20046;-66
2023/10/31 08:48:20;;;;;;;0.10;0.10;;;11.70;99.90;;;;;;4988290;28;20042;-66
2023/10/31 08:50:46;;;;;;;0.00;0.00;;;11.80;99.90;;;;;;4988957;28;20038;-66
2023/10/31 08:53:11;;;;;;;0.00;0.00;;;11.80;99.90;;;;;;4989790;28;20096;-66
2023/10/31 08:55:37;;;;;;;0.10;0.10;;;11.80;99.90;;;;;;4991067;28;20069;-67
2023/10/31 08:58:03;;;;;;;0.00;0.00;;;11.90;99.90;;;;;;4977542;28;20043;-66
2023/10/31 09:00:28;;;;;;;0.52;0.52;;;11.90;99.90;;;;;;4988764;28;20052;-66
2023/10/31 09:02:54;;;;;;;0.00;0.00;;;11.90;99.90;;;;;;4990281;28;20383;-67
2023/10/31 09:05:20;;;;;;;0.45;0.30;;;11.90;99.90;;;;;;4986151;28;20062;-67
2023/10/31 09:07:46;;;;;;;0.00;0.00;;;11.90;99.90;;;;;;4980764;28;20069;-67
2023/10/31 09:10:12;;;;;;;0.00;0.00;;;11.90;99.90;;;;;;4990824;28;20042;-67
2023/10/31 09:12:38;;;;;;;0.03;0.03;;;11.80;99.90;;;;;;4985605;28;20042;-66
2023/10/31 09:15:04;;;;;;;0.10;0.10;;;11.80;99.90;;;;;;4987275;28;20505;-66
2023/10/31 09:17:29;;;;;;;0.10;0.10;;;11.80;99.90;;;;;;4990898;28;20050;-66
2023/10/31 09:19:55;;;;;;;0.52;0.52;;;11.80;99.90;;;;;;4987027;28;20046;-66
2023/10/31 09:22:20;;;;;;;0.10;0.10;;;11.90;99.90;;;;;;4982163;28;20397;-66
2023/10/31 09:24:46;;;;;;;7.03;1.65;;;11.90;99.90;;;;;;4990393;28;20039;-66
2023/10/31 09:27:12;;;;;;;0.00;0.00;;;11.90;99.90;;;;;;4990298;28;20050;-66
2023/10/31 09:29:37;;;;;;;0.00;0.00;;;11.90;99.90;;;;;;4980835;28;20125;-66
2023/10/31 09:32:05;;;;;;;0.08;0.08;;;12.00;99.90;;;;;;4987024;28;20467;-66
2023/10/31 09:34:30;;;;;;;0.05;0.05;;;12.00;99.90;;;;;;4984851;28;20051;-67
2023/10/31 09:36:56;;;;;;;1.73;0.73;;;12.00;99.90;;;;;;4987065;28;20042;-66
2023/10/31 09:39:22;;;;;;;0.75;0.75;;;12.00;99.90;;;;;;4988453;28;20047;-66
2023/10/31 09:41:48;;;;;;;0.05;0.05;;;12.10;99.90;;;;;;4989549;28;20051;-66
2023/10/31 09:44:14;;;;;;;0.10;0.10;;;12.10;99.90;;;;;;4983424;28;20556;-66
2023/10/31 09:46:40;;;;;;;0.00;0.00;;;12.10;99.90;;;;;;4979338;28;20463;-66
2023/10/31 09:49:07;;;;;;;0.10;0.10;;;12.00;99.90;;;;;;4988989;28;20513;-66
2023/10/31 09:51:33;;;;;;;0.10;0.10;;;12.00;99.90;;;;;;4990124;28;20122;-66
2023/10/31 09:54:01;;;;;;;0.00;0.00;;;12.00;99.90;;;;;;4979608;28;20465;-66
2023/10/31 09:56:34;;;;;;;0.10;0.10;;;12.00;99.90;;;;;;4985996;28;20441;-66
2023/10/31 09:59:04;;;;;;;0.15;0.15;;;12.00;99.90;;;;;;4978871;28;20042;-66
2023/10/31 10:01:29;;;;;;;0.00;0.00;;;12.00;99.90;;;;;;4986783;28;20112;-66
2023/10/31 10:03:56;;;;;;;0.10;0.10;;;11.90;99.90;;;;;;4986735;28;20768;-66
2023/10/31 10:06:23;;;;;;;0.10;0.10;;;12.00;99.90;;;;;;4989226;28;20114;-66
2023/10/31 10:08:49;;;;;;;0.00;0.00;;;12.00;99.90;;;;;;4980778;28;20038;-66
2023/10/31 10:11:15;;;;;;;0.00;0.00;;;12.10;99.90;;;;;;4986927;28;20053;-66
2023/10/31 10:13:41;;;;;;;0.00;0.00;;;12.00;99.90;;;;;;4980077;28;20038;-66
2023/10/31 10:16:07;;;;;;;0.00;0.00;;;12.00;99.90;;;;;;4983891;28;20272;-66
2023/10/31 10:18:35;;;;;;;0.00;0.00;;;12.10;99.90;;;;;;4988969;28;20113;-66
2023/10/31 10:21:04;;;;;;;0.10;0.10;;;12.10;99.90;;;;;;4982079;28;20165;-66
2023/10/31 10:23:30;;;;;;;0.00;0.00;;;12.20;99.90;;;;;;4987901;28;20050;-66
2023/10/31 10:25:58;;;;;;;0.00;0.00;;;12.20;99.90;;;;;;4982425;28;20053;-66
2023/10/31 10:28:26;;;;;;;0.00;0.00;;;12.10;99.90;;;;;;4988098;28;20046;-66
2023/10/31 10:30:53;;;;;;;0.03;0.03;;;12.10;99.90;;;;;;4990163;28;20039;-66
2023/10/31 10:33:19;;;;;;;0.00;0.00;;;12.20;99.90;;;;;;4977215;28;20073;-66
2023/10/31 10:35:45;;;;;;;0.00;0.00;;;12.10;99.90;;;;;;4989370;28;20490;-66
2023/10/31 10:38:15;;;;;;;0.90;0.90;;;12.20;99.90;;;;;;4989643;28;20133;-66
2023/10/31 10:40:42;;;;;;;0.00;0.00;;;12.20;99.90;;;;;;4983328;28;20078;-66
2023/10/31 10:43:27;;;;;;;0.00;0.00;;;12.20;99.90;;;;;;4984529;28;20042;-66
2023/10/31 10:45:57;;;;;;;0.00;0.00;;;12.20;99.90;;;;;;4985482;28;20217;-66
2023/10/31 10:48:27;;;;;;;0.10;0.10;;;12.20;99.90;;;;;;4992880;28;20140;-66
2023/10/31 10:51:07;;;;;;;0.05;0.05;;;12.10;99.90;;;;;;4989914;28;20086;-66
2023/10/31 10:53:50;;;;;;;0.70;0.70;;;12.10;99.90;;;;;;4992605;28;20991;-66
2023/10/31 10:56:24;;;;;;;;;;;12.10;99.90;;;;;;4992516;28;20035;-66
2023/10/31 10:59:03;;;;;;;0.00;0.00;;;12.10;99.90;;;;;;4993243;28;20385;-66
2023/10/31 11:01:31;;;;;;;0.10;0.10;;;12.10;99.90;;;;;;4977608;28;20082;-66
2023/10/31 11:03:58;;;;;;;0.10;0.10;;;12.10;99.90;;;;;;4981438;28;20092;-66
2023/10/31 11:06:25;;;;;;;0.05;0.05;;;12.10;99.90;;;;;;4983201;28;20137;-66
2023/10/31 11:08:51;;;;;;;0.10;0.10;;;12.10;99.90;;;;;;4988335;28;20030;-66
2023/10/31 11:11:19;;;;;;;0.00;0.00;;;12.00;99.90;;;;;;4984354;28;20054;-66
2023/10/31 11:13:45;;;;;;;0.10;0.10;;;12.00;99.90;;;;;;4981805;28;20148;-66
2023/10/31 11:16:20;;;;;;;0.00;0.00;;;11.90;99.90;;;;;;4976749;28;20169;-66
2023/10/31 11:18:46;;;;;;;0.08;0.08;;;11.90;99.90;;;;;;4985464;28;20042;-66
2023/10/31 11:21:12;;;;;;;0.10;0.10;;;11.90;99.90;;;;;;4983341;28;20038;-66
2023/10/31 11:23:39;;;;;;;0.10;0.10;;;11.90;99.90;;;;;;4992059;28;20050;-66
2023/10/31 11:26:08;;;;;;;0.05;0.05;;;11.90;99.90;;;;;;4987254;28;20062;-66
2023/10/31 11:28:33;;;;;;;0.10;0.10;;;11.90;99.90;;;;;;4989726;28;20042;-66
2023/10/31 11:31:01;;;;;;;0.10;0.10;;;11.90;99.90;;;;;;4988041;28;20423;-66
2023/10/31 11:33:27;;;;;;;0.00;0.00;;;11.80;99.90;;;;;;4983623;28;20108;-67
2023/10/31 11:36:11;;;;;;;0.10;0.10;;;11.90;99.90;;;;;;4993210;28;20034;-66
2023/10/31 11:38:38;;;;;;;0.00;0.00;;;12.00;99.90;;;;;;4981001;28;20042;-67
2023/10/31 11:41:04;;;;;;;0.00;0.00;;;12.00;99.90;;;;;;4990171;28;20077;-67
2023/10/31 11:43:39;;;;;;;0.10;0.10;;;12.00;99.90;;;;;;4991533;28;20046;-67
2023/10/31 11:46:05;;;;;;;0.03;0.03;;;12.00;99.90;;;;;;4984278;28;20049;-67
2023/10/31 11:48:51;;;;;;;0.08;0.08;;;12.10;99.90;;;;;;4990951;28;20042;-67
2023/10/31 11:51:17;;;;;;;0.10;0.10;;;12.10;99.90;;;;;;4989502;28;20375;-67
2023/10/31 11:53:44;;;;;;;0.00;0.00;;;12.20;99.90;;;;;;4983500;28;20121;-66
2023/10/31 11:56:13;;;;;;;0.10;0.10;;;12.20;99.90;;;;;;4986511;28;20053;-66
2023/10/31 11:58:39;;;;;;;0.10;0.10;;;12.30;99.90;;;;;;4988146;28;20055;-67
2023/10/31 12:01:07;;;;;;;0.00;0.00;;;12.40;99.90;;;;;;4992389;28;20462;-67
2023/10/31 12:03:40;;;;;;;0.10;0.10;;;12.50;99.90;;;;;;4989278;28;20038;-67
2023/10/31 12:06:06;;;;;;;0.10;0.10;;;12.60;99.90;;;;;;4989160;28;20502;-67
2023/10/31 12:08:37;;;;;;;0.10;0.10;;;12.70;99.90;;;;;;4983073;28;20043;-67
2023/10/31 12:11:20;;;;;;;0.00;0.00;;;12.80;99.90;;;;;;4992399;28;20165;-67
2023/10/31 12:14:00;;;;;;;0.10;0.10;;;12.90;99.90;;;;;;4991450;28;20043;-67
2023/10/31 12:16:30;;;;;;;0.05;0.05;;;13.10;99.90;;;;;;4985508;28;20042;-67
2023/10/31 12:19:06;;;;;;;0.00;0.00;;;13.10;99.90;;;;;;4982568;28;20826;-67
2023/10/31 12:21:36;;;;;;;0.10;0.10;;;13.30;99.90;;;;;;4988496;28;20410;-67
2023/10/31 12:24:07;;;;;;;0.00;0.00;;;13.30;99.90;;;;;;4989859;28;20038;-67
2023/10/31 12:26:34;;;;;;;0.00;0.00;;;13.30;99.90;;;;;;4979486;28;20061;-67
2023/10/31 12:29:08;;;;;;;0.08;0.08;;;13.30;99.90;;;;;;4980363;28;20055;-67
2023/10/31 12:31:34;;;;;;;;;;;13.30;99.90;;;;;;4981214;28;20078;-67
2023/10/31 12:34:07;;;;;;;0.82;0.82;;;13.50;99.90;;;;;;4984454;28;19964;-67
2023/10/31 12:36:35;;;;;;;;;;;13.30;99.90;;;;;;4985231;28;20050;-67
2023/10/31 12:39:02;;;;;;;0.00;0.00;;;13.20;99.90;;;;;;4990414;28;19922;-66
2023/10/31 12:41:28;;;;;;;0.10;0.10;;;13.10;99.90;;;;;;4988254;28;20034;-66
2023/10/31 12:43:54;;;;;;;0.00;0.00;;;13.00;99.90;;;;;;4979685;28;20089;-66